Peter Möller

Scout - Werder Bremen
3 Apr 2027
Samstag
Verarbeitung

Persönlichkeit

Anpassungsfähigkeit (2) Ehrgeiz (16) Kontroverse (15) Loyalität (7) Druck (18) Professionalität (15) Fairness (11) Temperament (19)

Profil

Trainerstil Demokratisch
Lizenz Kontinentale Pro
Entschlossenheit 6
Menschenführung 9
Motivation 14
Disziplin 6
Arbeitszufriedenheit
60%
Ermüdung
0%
Rolle Scout
Gehalt 52.4K p/W
Vertrag 14.03.2030

Leistung

Verhalten Gut
Trainingseffektivität
35%
Spielerentwicklung
35%
Verletzungsprävention
50%
Taktische Umsetzung
65%

Letzte Ereignisse

Nahm an einer Scouting-Besprechung teil jetzt
Nahm an einer Scouting-Besprechung teil jetzt
Empfahl ein Transferziel jetzt
Nahm an einer Scouting-Besprechung teil jetzt
Spieler begutachtet jetzt
Spiel beobachtet 7T her
Spiel beobachtet 7T her
Spiel beobachtet 7T her

Aktuell beobachtet

78
Spieler Verein Status Fähigkeit Vertrauen Beobachtet Zuletzt beobachtet Letzte Stimme
Markus Jensen Nacional Aktiv 110 / 111 40% 1 02.04.2027 -
Sabil Hansen Randers Aktiv 108 / 114 40% 1 02.04.2027 -
Juan Pablo De la Reta Maipú Aktiv 108 / 108 40% 1 30.03.2027 -
Dylan Gorosito Boca Juniors Aktiv 105 / 126 40% 1 30.03.2027 -
Dehmaine Tabibou FC Nantes Aktiv 137 / 129 40% 1 30.03.2027 -
Gorka Gorosabel Real Sociedad Aktiv 102 / 106 40% 1 30.03.2027 -
Wellity Lucky Liverpool Aktiv 102 / 105 40% 2 26.03.2027 -
Tylel Tati Monaco Aktiv 120 / 119 40% 1 26.03.2027 -
Teun Gijselhart Deportivo La Coruña Aktiv 118 / 105 40% 2 25.03.2027 -
Harrison McMahon Chelsea Aktiv 90 / 115 40% 1 25.03.2027 -
Gonçalo Oliveira Benfica Aktiv 117 / 123 40% 1 24.03.2027 -
Emirhan Başyiğit Sivasspor Aktiv 102 / 104 40% 1 24.03.2027 -
Sergio Quintero La Equidad Aktiv 139 / 137 40% 1 23.03.2027 -
Cemran Dansin Orlando Pirates Aktiv 103 / 102 40% 1 23.03.2027 -
Khalis Merah LOSC Lille Aktiv 132 / 120 40% 1 20.03.2027 -
Chris Rigg Sunderland Aktiv 120 / 143 40% 1 20.03.2027 -
Lucas Agazzi Defensor Sporting Aktiv 116 / 134 40% 1 18.03.2027 -
Santiago Daniele Chacarita Juniors Aktiv 102 / 107 40% 1 18.03.2027 -
Mirko Juárez Quilmes Aktiv 96 / 103 40% 1 17.03.2027 -
Jon Martín Real Sociedad Aktiv 125 / 138 40% 1 17.03.2027 -
João Teixeira Porto Aktiv 111 / 118 40% 1 16.03.2027 -
Joaquin Seys Club Brugge Aktiv 125 / 124 40% 1 16.03.2027 -
Pedro Zenit Aktiv 134 / 135 40% 1 05.03.2027 -
Ruan Alanyaspor Aktiv 137 / 134 40% 1 05.03.2027 -
Martim Cunha Porto Aktiv 103 / 100 40% 1 03.03.2027 -
Olívio Tomé Benfica Aktiv 97 / 112 40% 1 03.03.2027 -
Mads Pedersen FC Augsburg Aktiv 116 / 122 58% 1 11.01.2027 Befürworten
Metinho Basel Aktiv 135 / 138 40% 2 30.12.2026 -
Erick Pulga Bahia Aktiv 125 / 130 40% 1 30.12.2026 -
Martinelli Fluminense Aktiv 130 / 145 40% 2 26.12.2026 -
Sikou Niakaté Braga Aktiv 136 / 131 40% 1 26.12.2026 -
Alvyn Sanches Young Boys Aktiv 140 / 138 40% 3 24.12.2026 -
Jens Petter Hauge Bodo/Glimt Aktiv 142 / 126 40% 1 24.12.2026 -
Alexandre Penetra AZ Aktiv 141 / 132 40% 3 23.12.2026 -
Henry Mosquera Bragantino Aktiv 125 / 122 40% 1 23.12.2026 -
Tomáš Rigo Stoke City Aktiv 121 / 138 40% 1 23.12.2026 -
Wilfried Singo Galatasaray Aktiv 148 / 151 40% 1 23.12.2026 -
Sebastián Cáceres Club America Aktiv 120 / 119 40% 2 20.12.2026 -
Alex Luna Instituto Aktiv 136 / 138 40% 2 19.12.2026 -
Efraín Álvarez Guadalajara Aktiv 138 / 114 40% 1 19.12.2026 -
Aral Şimşir Trabzonspor Aktiv 133 / 120 40% 1 17.12.2026 -
Kein Sato FC Tokyo Aktiv 120 / 145 40% 1 17.12.2026 -
Marcus Holmgren Pedersen Olympiacos Aktiv 145 / 137 40% 1 15.12.2026 -
Facundo Pellistri Panathinaikos Aktiv 127 / 120 40% 2 10.12.2026 -
Félix Lemaréchal Club Brugge Aktiv 144 / 136 40% 1 10.12.2026 -
Kiliann Sildillia PSV Aktiv 140 / 136 40% 1 09.12.2026 -
Gustavo Mantuan Zenit Aktiv 138 / 130 40% 1 06.12.2026 -
İsmail Yüksek Fenerbahce Aktiv 138 / 125 40% 1 06.12.2026 -
Aurèle Amenda Coventry City Aktiv 139 / 136 40% 1 05.12.2026 -
Nicolò Bertola Udinese Aktiv 129 / 143 40% 1 05.12.2026 -
Isma Ruiz Córdoba Aktiv 140 / 127 40% 1 04.12.2026 -
Nehuén Pérez Porto Aktiv 151 / 136 40% 1 03.12.2026 -
Cesar Corona Veracruz Aktiv 146 / 131 40% 1 29.11.2026 -
Exequiel Zeballos Boca Juniors Aktiv 136 / 143 40% 1 19.11.2026 -
Marlon Gomes Shakhtar Aktiv 135 / 146 40% 1 14.11.2026 -
Caio Alexandre Bahia Aktiv 140 / 128 40% 1 14.11.2026 -
Luca Orellano Monterrey Aktiv 122 / 132 40% 1 08.11.2026 -
Nuno Moreira Vasco da Gama Aktiv 137 / 122 40% 1 31.10.2026 -
Marquinhos Spartak Moscow Aktiv 134 / 138 40% 1 27.10.2026 -
Gedson Fernandes Spartak Moscow Aktiv 137 / 141 40% 1 25.10.2026 -
Vitinho Botafogo Aktiv 139 / 129 40% 1 25.10.2026 -
Yacine Adli Al-Shabab Aktiv 137 / 134 40% 1 21.10.2026 -
Thierry Rendall Correia Venezia Aktiv 145 / 146 40% 1 21.10.2026 Mehr Infos nötig
Adrià Altimira Deportivo La Coruña Aktiv 124 / 130 40% 1 14.10.2026 -
Alan Velasco Boca Juniors Aktiv 122 / 126 40% 1 14.10.2026 -
Ilias Akhomach Villarreal Aktiv 133 / 144 40% 2 12.10.2026 -
Mattia Zanotti Lugano Aktiv 133 / 131 40% 1 12.10.2026 -
Igoh Ogbu Racing Genk Aktiv 137 / 154 40% 1 07.10.2026 Mehr Infos nötig
Gabriel Sara Galatasaray Aktiv 126 / 145 40% 1 05.10.2026 -
Erik Lira Cruz Azul Aktiv 122 / 123 40% 1 05.10.2026 -
Riqui Puig LA Galaxy Aktiv 142 / 129 40% 1 04.10.2026 -
Fabian Rieder FC Augsburg Aktiv 127 / 124 40% 1 03.10.2026 -
José Paradela Cruz Azul Aktiv 145 / 122 40% 1 03.10.2026 -
Maurits Kjærgaard Red Bull Salzburg Aktiv 139 / 141 40% 1 27.09.2026 -
Antony Portland Timbers Aktiv 132 / 124 40% 1 27.09.2026 -
Michy Fellaini KV Oostende Aktiv 128 / 129 40% 1 14.09.2026 -
Nicolas Madsen Queens Park Rangers Aktiv 131 / 123 40% 1 14.09.2026 -
Haissem Hassan Bloemfontein Celtic Aktiv 116 / 130 40% 1 13.09.2026 -